sensor_id;sensor_type;location;lat;lon;timestamp;temperature;humidity
19007;DHT22;9636;47.382;8.480;2023-11-22T00:00:35;13.20;99.90
19007;DHT22;9636;47.382;8.480;2023-11-22T00:03:01;13.10;99.90
19007;DHT22;9636;47.382;8.480;2023-11-22T00:05:29;13.20;99.90
19007;DHT22;9636;47.382;8.480;2023-11-22T00:07:56;13.10;99.90
19007;DHT22;9636;47.382;8.480;2023-11-22T00:10:23;13.10;99.90
19007;DHT22;9636;47.382;8.480;2023-11-22T00:12:49;13.10;99.90
19007;DHT22;9636;47.382;8.480;2023-11-22T00:15:16;13.10;99.90
19007;DHT22;9636;47.382;8.480;2023-11-22T00:17:45;13.10;99.90
19007;DHT22;9636;47.382;8.480;2023-11-22T00:20:13;13.10;99.90
19007;DHT22;9636;47.382;8.480;2023-11-22T00:22:39;13.10;99.90
19007;DHT22;9636;47.382;8.480;2023-11-22T00:25:07;13.10;99.90
19007;DHT22;9636;47.382;8.480;2023-11-22T00:27:34;13.10;99.90
19007;DHT22;9636;47.382;8.480;2023-11-22T00:30:02;13.10;99.90
19007;DHT22;9636;47.382;8.480;2023-11-22T00:32:30;13.10;99.90
19007;DHT22;9636;47.382;8.480;2023-11-22T00:34:58;13.00;99.90
19007;DHT22;9636;47.382;8.480;2023-11-22T00:37:24;13.00;99.90
19007;DHT22;9636;47.382;8.480;2023-11-22T00:39:51;13.00;99.90
19007;DHT22;9636;47.382;8.480;2023-11-22T00:42:18;13.00;99.90
19007;DHT22;9636;47.382;8.480;2023-11-22T00:44:45;13.00;99.90
19007;DHT22;9636;47.382;8.480;2023-11-22T00:47:12;13.00;99.90
19007;DHT22;9636;47.382;8.480;2023-11-22T00:49:39;13.00;99.90
19007;DHT22;9636;47.382;8.480;2023-11-22T00:52:07;13.00;99.90
19007;DHT22;9636;47.382;8.480;2023-11-22T00:54:34;13.00;99.90
19007;DHT22;9636;47.382;8.480;2023-11-22T00:57:01;13.00;99.90
19007;DHT22;9636;47.382;8.480;2023-11-22T00:59:28;13.00;99.90
19007;DHT22;9636;47.382;8.480;2023-11-22T01:01:54;12.90;99.90
19007;DHT22;9636;47.382;8.480;2023-11-22T01:04:21;12.90;99.90
19007;DHT22;9636;47.382;8.480;2023-11-22T01:06:48;12.90;99.90
19007;DHT22;9636;47.382;8.480;2023-11-22T01:09:16;12.90;99.90
19007;DHT22;9636;47.382;8.480;2023-11-22T01:11:44;12.90;99.90
19007;DHT22;9636;47.382;8.480;2023-11-22T01:14:11;12.90;99.90
19007;DHT22;9636;47.382;8.480;2023-11-22T01:16:37;12.90;99.90
19007;DHT22;9636;47.382;8.480;2023-11-22T01:19:04;12.90;99.90
19007;DHT22;9636;47.382;8.480;2023-11-22T01:21:31;12.90;99.90
19007;DHT22;9636;47.382;8.480;2023-11-22T01:23:58;12.90;99.90
19007;DHT22;9636;47.382;8.480;2023-11-22T01:26:26;12.90;99.90
19007;DHT22;9636;47.382;8.480;2023-11-22T01:28:53;12.90;99.90
19007;DHT22;9636;47.382;8.480;2023-11-22T01:31:20;12.90;99.90
19007;DHT22;9636;47.382;8.480;2023-11-22T01:33:48;12.80;99.90
19007;DHT22;9636;47.382;8.480;2023-11-22T01:36:15;12.80;99.90
19007;DHT22;9636;47.382;8.480;2023-11-22T01:38:41;12.80;99.90
19007;DHT22;9636;47.382;8.480;2023-11-22T01:41:10;12.80;99.90
19007;DHT22;9636;47.382;8.480;2023-11-22T01:43:39;12.80;99.90
19007;DHT22;9636;47.382;8.480;2023-11-22T01:46:07;12.80;99.90
19007;DHT22;9636;47.382;8.480;2023-11-22T01:48:34;12.80;99.90
19007;DHT22;9636;47.382;8.480;2023-11-22T01:51:02;12.80;99.90
19007;DHT22;9636;47.382;8.480;2023-11-22T01:53:29;12.80;99.90
19007;DHT22;9636;47.382;8.480;2023-11-22T01:55:56;12.80;99.90
19007;DHT22;9636;47.382;8.480;2023-11-22T01:58:23;12.80;99.90
19007;DHT22;9636;47.382;8.480;2023-11-22T02:00:52;12.80;99.90
19007;DHT22;9636;47.382;8.480;2023-11-22T02:03:19;12.80;99.90
19007;DHT22;9636;47.382;8.480;2023-11-22T02:05:46;12.80;99.90
19007;DHT22;9636;47.382;8.480;2023-11-22T02:08:13;12.80;99.90
19007;DHT22;9636;47.382;8.480;2023-11-22T02:10:40;12.70;99.90
19007;DHT22;9636;47.382;8.480;2023-11-22T02:13:07;12.70;99.90
19007;DHT22;9636;47.382;8.480;2023-11-22T02:15:35;12.70;99.90
19007;DHT22;9636;47.382;8.480;2023-11-22T02:18:04;12.70;99.90
19007;DHT22;9636;47.382;8.480;2023-11-22T02:20:32;12.70;99.90
19007;DHT22;9636;47.382;8.480;2023-11-22T02:23:03;12.70;99.90
19007;DHT22;9636;47.382;8.480;2023-11-22T02:25:30;12.70;99.90
19007;DHT22;9636;47.382;8.480;2023-11-22T02:27:57;12.70;99.90
19007;DHT22;9636;47.382;8.480;2023-11-22T02:30:24;12.70;99.90
19007;DHT22;9636;47.382;8.480;2023-11-22T02:32:51;12.70;99.90
19007;DHT22;9636;47.382;8.480;2023-11-22T02:35:18;12.70;99.90
19007;DHT22;9636;47.382;8.480;2023-11-22T02:37:44;12.70;99.90
19007;DHT22;9636;47.382;8.480;2023-11-22T02:40:16;12.70;99.90
19007;DHT22;9636;47.382;8.480;2023-11-22T02:42:44;12.70;99.90
19007;DHT22;9636;47.382;8.480;2023-11-22T02:45:11;12.70;99.90
19007;DHT22;9636;47.382;8.480;2023-11-22T02:47:39;12.70;99.90
19007;DHT22;9636;47.382;8.480;2023-11-22T02:50:06;12.70;99.90
19007;DHT22;9636;47.382;8.480;2023-11-22T02:52:33;12.70;99.90
19007;DHT22;9636;47.382;8.480;2023-11-22T02:55:00;12.70;99.90
19007;DHT22;9636;47.382;8.480;2023-11-22T02:57:28;12.60;99.90
19007;DHT22;9636;47.382;8.480;2023-11-22T02:59:55;12.60;99.90
19007;DHT22;9636;47.382;8.480;2023-11-22T03:02:22;12.60;99.90
19007;DHT22;9636;47.382;8.480;2023-11-22T03:04:49;12.60;99.90
19007;DHT22;9636;47.382;8.480;2023-11-22T03:07:16;12.60;99.90
19007;DHT22;9636;47.382;8.480;2023-11-22T03:09:43;12.60;99.90
19007;DHT22;9636;47.382;8.480;2023-11-22T03:12:11;12.60;99.90
19007;DHT22;9636;47.382;8.480;2023-11-22T03:14:39;12.60;99.90
19007;DHT22;9636;47.382;8.480;2023-11-22T03:17:06;12.60;99.90
19007;DHT22;9636;47.382;8.480;2023-11-22T03:19:33;12.60;99.90
19007;DHT22;9636;47.382;8.480;2023-11-22T03:22:00;12.60;99.90
19007;DHT22;9636;47.382;8.480;2023-11-22T03:24:28;12.60;99.90
19007;DHT22;9636;47.382;8.480;2023-11-22T03:26:55;12.60;99.90
19007;DHT22;9636;47.382;8.480;2023-11-22T03:29:24;12.60;99.90
19007;DHT22;9636;47.382;8.480;2023-11-22T03:31:52;12.60;99.90
19007;DHT22;9636;47.382;8.480;2023-11-22T03:34:19;12.60;99.90
19007;DHT22;9636;47.382;8.480;2023-11-22T03:36:46;12.60;99.90
19007;DHT22;9636;47.382;8.480;2023-11-22T03:39:14;12.60;99.90
19007;DHT22;9636;47.382;8.480;2023-11-22T03:41:41;12.60;99.90
19007;DHT22;9636;47.382;8.480;2023-11-22T03:44:08;12.50;99.90
19007;DHT22;9636;47.382;8.480;2023-11-22T03:46:35;12.50;99.90
19007;DHT22;9636;47.382;8.480;2023-11-22T03:49:03;12.60;99.90
19007;DHT22;9636;47.382;8.480;2023-11-22T03:51:32;12.50;99.90
19007;DHT22;9636;47.382;8.480;2023-11-22T03:53:59;12.50;99.90
19007;DHT22;9636;47.382;8.480;2023-11-22T03:56:27;12.50;99.90
19007;DHT22;9636;47.382;8.480;2023-11-22T03:58:54;12.50;99.90
19007;DHT22;9636;47.382;8.480;2023-11-22T04:01:20;12.50;99.90
19007;DHT22;9636;47.382;8.480;2023-11-22T04:03:48;12.50;99.90
19007;DHT22;9636;47.382;8.480;2023-11-22T04:06:16;12.50;99.90
19007;DHT22;9636;47.382;8.480;2023-11-22T04:08:43;12.50;99.90
19007;DHT22;9636;47.382;8.480;2023-11-22T04:11:11;12.50;99.90
19007;DHT22;9636;47.382;8.480;2023-11-22T04:13:38;12.50;99.90
19007;DHT22;9636;47.382;8.480;2023-11-22T04:16:05;12.50;99.90
19007;DHT22;9636;47.382;8.480;2023-11-22T04:18:34;12.50;99.90
19007;DHT22;9636;47.382;8.480;2023-11-22T04:21:01;12.50;99.90
19007;DHT22;9636;47.382;8.480;2023-11-22T04:23:31;12.40;99.90
19007;DHT22;9636;47.382;8.480;2023-11-22T04:25:58;12.50;99.90
19007;DHT22;9636;47.382;8.480;2023-11-22T04:28:25;12.40;99.90
19007;DHT22;9636;47.382;8.480;2023-11-22T04:30:52;12.40;99.90
19007;DHT22;9636;47.382;8.480;2023-11-22T04:33:20;12.40;99.90
19007;DHT22;9636;47.382;8.480;2023-11-22T04:35:47;12.40;99.90
19007;DHT22;9636;47.382;8.480;2023-11-22T04:38:14;12.40;99.90
19007;DHT22;9636;47.382;8.480;2023-11-22T04:40:42;12.50;99.90
19007;DHT22;9636;47.382;8.480;2023-11-22T04:43:09;12.70;99.90
19007;DHT22;9636;47.382;8.480;2023-11-22T04:45:35;12.80;99.90
19007;DHT22;9636;47.382;8.480;2023-11-22T04:48:03;13.10;99.90
19007;DHT22;9636;47.382;8.480;2023-11-22T04:50:30;13.30;99.90
19007;DHT22;9636;47.382;8.480;2023-11-22T04:52:57;13.60;99.90
19007;DHT22;9636;47.382;8.480;2023-11-22T04:55:24;13.80;99.90
19007;DHT22;9636;47.382;8.480;2023-11-22T04:57:52;14.00;99.90
19007;DHT22;9636;47.382;8.480;2023-11-22T05:00:20;14.20;99.90
19007;DHT22;9636;47.382;8.480;2023-11-22T05:02:48;14.40;99.90
19007;DHT22;9636;47.382;8.480;2023-11-22T05:05:15;14.60;99.90
19007;DHT22;9636;47.382;8.480;2023-11-22T05:07:42;14.70;99.90
19007;DHT22;9636;47.382;8.480;2023-11-22T05:10:10;14.90;99.90
19007;DHT22;9636;47.382;8.480;2023-11-22T05:12:37;15.00;99.90
19007;DHT22;9636;47.382;8.480;2023-11-22T05:15:06;15.20;99.90
19007;DHT22;9636;47.382;8.480;2023-11-22T05:17:33;15.30;99.90
19007;DHT22;9636;47.382;8.480;2023-11-22T05:20:00;15.40;99.90
19007;DHT22;9636;47.382;8.480;2023-11-22T05:22:27;15.60;99.90
19007;DHT22;9636;47.382;8.480;2023-11-22T05:24:54;15.80;99.90
19007;DHT22;9636;47.382;8.480;2023-11-22T05:27:21;15.80;99.90
19007;DHT22;9636;47.382;8.480;2023-11-22T05:29:48;15.90;99.90
19007;DHT22;9636;47.382;8.480;2023-11-22T05:32:16;16.00;99.90
19007;DHT22;9636;47.382;8.480;2023-11-22T05:34:43;16.10;99.90
19007;DHT22;9636;47.382;8.480;2023-11-22T05:37:10;16.20;99.90
19007;DHT22;9636;47.382;8.480;2023-11-22T05:39:37;16.30;99.90
19007;DHT22;9636;47.382;8.480;2023-11-22T05:42:04;16.40;99.90
19007;DHT22;9636;47.382;8.480;2023-11-22T05:44:32;16.50;99.90
19007;DHT22;9636;47.382;8.480;2023-11-22T05:46:59;16.50;99.90
19007;DHT22;9636;47.382;8.480;2023-11-22T05:49:27;16.60;99.90
19007;DHT22;9636;47.382;8.480;2023-11-22T05:51:54;16.70;99.90
19007;DHT22;9636;47.382;8.480;2023-11-22T05:54:20;16.80;99.90
19007;DHT22;9636;47.382;8.480;2023-11-22T05:56:47;16.80;99.90
19007;DHT22;9636;47.382;8.480;2023-11-22T05:59:14;16.90;99.90
19007;DHT22;9636;47.382;8.480;2023-11-22T06:01:41;17.00;99.90
19007;DHT22;9636;47.382;8.480;2023-11-22T06:04:08;17.00;99.90
19007;DHT22;9636;47.382;8.480;2023-11-22T06:06:36;16.90;99.90
19007;DHT22;9636;47.382;8.480;2023-11-22T06:09:03;16.90;99.90
19007;DHT22;9636;47.382;8.480;2023-11-22T06:11:32;16.80;99.90
19007;DHT22;9636;47.382;8.480;2023-11-22T06:13:59;16.80;99.90
19007;DHT22;9636;47.382;8.480;2023-11-22T06:16:26;16.70;99.90
19007;DHT22;9636;47.382;8.480;2023-11-22T06:18:53;16.60;99.90
19007;DHT22;9636;47.382;8.480;2023-11-22T06:21:19;16.60;99.90
19007;DHT22;9636;47.382;8.480;2023-11-22T06:23:48;16.50;99.90
19007;DHT22;9636;47.382;8.480;2023-11-22T06:26:15;16.40;99.90
19007;DHT22;9636;47.382;8.480;2023-11-22T06:28:42;16.30;99.90
19007;DHT22;9636;47.382;8.480;2023-11-22T06:31:11;16.30;99.90
19007;DHT22;9636;47.382;8.480;2023-11-22T06:33:38;16.30;99.90
19007;DHT22;9636;47.382;8.480;2023-11-22T06:36:05;16.20;99.90
19007;DHT22;9636;47.382;8.480;2023-11-22T06:38:32;16.10;99.90
19007;DHT22;9636;47.382;8.480;2023-11-22T06:41:01;16.10;99.90
19007;DHT22;9636;47.382;8.480;2023-11-22T06:43:28;16.10;99.90
19007;DHT22;9636;47.382;8.480;2023-11-22T06:45:55;16.00;99.90
19007;DHT22;9636;47.382;8.480;2023-11-22T06:48:22;15.90;99.90
19007;DHT22;9636;47.382;8.480;2023-11-22T06:50:49;15.90;99.90
19007;DHT22;9636;47.382;8.480;2023-11-22T06:53:15;15.90;99.90
19007;DHT22;9636;47.382;8.480;2023-11-22T06:55:45;15.90;99.90
19007;DHT22;9636;47.382;8.480;2023-11-22T06:58:13;15.80;99.90
19007;DHT22;9636;47.382;8.480;2023-11-22T07:00:40;15.70;99.90
19007;DHT22;9636;47.382;8.480;2023-11-22T07:03:06;15.70;99.90
19007;DHT22;9636;47.382;8.480;2023-11-22T07:05:33;15.70;99.90
19007;DHT22;9636;47.382;8.480;2023-11-22T07:08:01;15.70;99.90
19007;DHT22;9636;47.382;8.480;2023-11-22T07:10:29;15.60;99.90
19007;DHT22;9636;47.382;8.480;2023-11-22T07:12:59;15.60;99.90
19007;DHT22;9636;47.382;8.480;2023-11-22T07:15:28;15.60;99.90
19007;DHT22;9636;47.382;8.480;2023-11-22T07:17:55;15.50;99.90
19007;DHT22;9636;47.382;8.480;2023-11-22T07:20:22;15.50;99.90
19007;DHT22;9636;47.382;8.480;2023-11-22T07:22:49;15.40;99.90
19007;DHT22;9636;47.382;8.480;2023-11-22T07:25:20;15.50;99.90
19007;DHT22;9636;47.382;8.480;2023-11-22T07:27:50;15.50;99.90
19007;DHT22;9636;47.382;8.480;2023-11-22T07:30:19;15.40;99.90
19007;DHT22;9636;47.382;8.480;2023-11-22T07:32:49;15.40;99.90
19007;DHT22;9636;47.382;8.480;2023-11-22T07:35:17;15.30;99.90
19007;DHT22;9636;47.382;8.480;2023-11-22T07:37:45;15.30;99.90
19007;DHT22;9636;47.382;8.480;2023-11-22T07:40:13;15.30;99.90
19007;DHT22;9636;47.382;8.480;2023-11-22T07:42:40;15.30;99.90
19007;DHT22;9636;47.382;8.480;2023-11-22T07:45:08;15.30;99.90
19007;DHT22;9636;47.382;8.480;2023-11-22T07:47:37;15.20;99.90
19007;DHT22;9636;47.382;8.480;2023-11-22T07:50:08;15.20;99.90
19007;DHT22;9636;47.382;8.480;2023-11-22T07:52:35;15.20;99.90
19007;DHT22;9636;47.382;8.480;2023-11-22T07:55:03;15.10;99.90
19007;DHT22;9636;47.382;8.480;2023-11-22T07:57:33;15.10;99.90
19007;DHT22;9636;47.382;8.480;2023-11-22T08:00:00;15.10;99.90
19007;DHT22;9636;47.382;8.480;2023-11-22T08:02:32;15.00;99.90
19007;DHT22;9636;47.382;8.480;2023-11-22T08:04:59;15.00;99.90
19007;DHT22;9636;47.382;8.480;2023-11-22T08:07:28;15.00;99.90
19007;DHT22;9636;47.382;8.480;2023-11-22T08:09:55;15.00;99.90
19007;DHT22;9636;47.382;8.480;2023-11-22T08:12:22;15.00;99.90
19007;DHT22;9636;47.382;8.480;2023-11-22T08:14:49;14.90;99.90
19007;DHT22;9636;47.382;8.480;2023-11-22T08:17:17;14.90;99.90
19007;DHT22;9636;47.382;8.480;2023-11-22T08:19:44;14.90;99.90
19007;DHT22;9636;47.382;8.480;2023-11-22T08:22:13;14.90;99.90
19007;DHT22;9636;47.382;8.480;2023-11-22T08:24:41;14.90;99.90
19007;DHT22;9636;47.382;8.480;2023-11-22T08:27:09;14.90;99.90
19007;DHT22;9636;47.382;8.480;2023-11-22T08:29:37;14.90;99.90
19007;DHT22;9636;47.382;8.480;2023-11-22T08:32:05;14.90;99.90
19007;DHT22;9636;47.382;8.480;2023-11-22T08:34:32;14.90;99.90
19007;DHT22;9636;47.382;8.480;2023-11-22T08:36:59;14.80;99.90
19007;DHT22;9636;47.382;8.480;2023-11-22T08:39:25;14.80;99.90
19007;DHT22;9636;47.382;8.480;2023-11-22T08:41:54;14.80;99.90
19007;DHT22;9636;47.382;8.480;2023-11-22T08:44:21;14.80;99.90
19007;DHT22;9636;47.382;8.480;2023-11-22T08:46:48;14.90;99.90
19007;DHT22;9636;47.382;8.480;2023-11-22T08:49:15;14.90;99.90
19007;DHT22;9636;47.382;8.480;2023-11-22T08:51:41;14.80;99.90
19007;DHT22;9636;47.382;8.480;2023-11-22T08:54:08;14.80;99.90
19007;DHT22;9636;47.382;8.480;2023-11-22T08:56:35;14.80;99.90
19007;DHT22;9636;47.382;8.480;2023-11-22T08:59:04;14.80;99.90
19007;DHT22;9636;47.382;8.480;2023-11-22T09:01:31;14.70;99.90
19007;DHT22;9636;47.382;8.480;2023-11-22T09:03:57;14.70;99.90
19007;DHT22;9636;47.382;8.480;2023-11-22T09:06:24;14.70;99.90
19007;DHT22;9636;47.382;8.480;2023-11-22T09:08:51;14.70;99.90
19007;DHT22;9636;47.382;8.480;2023-11-22T09:11:18;14.70;99.90
19007;DHT22;9636;47.382;8.480;2023-11-22T09:13:47;14.70;99.90
19007;DHT22;9636;47.382;8.480;2023-11-22T09:16:17;14.60;99.90
19007;DHT22;9636;47.382;8.480;2023-11-22T09:18:45;14.60;99.90
19007;DHT22;9636;47.382;8.480;2023-11-22T09:21:11;14.60;99.90
19007;DHT22;9636;47.382;8.480;2023-11-22T09:23:38;14.60;99.90
19007;DHT22;9636;47.382;8.480;2023-11-22T09:26:05;14.60;99.90
19007;DHT22;9636;47.382;8.480;2023-11-22T09:28:32;14.60;99.90
19007;DHT22;9636;47.382;8.480;2023-11-22T09:30:58;14.60;99.90
19007;DHT22;9636;47.382;8.480;2023-11-22T09:33:32;14.60;99.90
19007;DHT22;9636;47.382;8.480;2023-11-22T09:35:59;14.60;99.90
19007;DHT22;9636;47.382;8.480;2023-11-22T09:38:29;14.60;99.90
19007;DHT22;9636;47.382;8.480;2023-11-22T09:40:56;14.50;99.90
19007;DHT22;9636;47.382;8.480;2023-11-22T09:43:25;14.50;99.90
19007;DHT22;9636;47.382;8.480;2023-11-22T09:45:54;14.50;99.90
19007;DHT22;9636;47.382;8.480;2023-11-22T09:48:23;14.50;99.90
19007;DHT22;9636;47.382;8.480;2023-11-22T09:50:58;14.50;99.90
19007;DHT22;9636;47.382;8.480;2023-11-22T09:53:31;14.50;99.90
19007;DHT22;9636;47.382;8.480;2023-11-22T09:56:00;14.50;99.90
19007;DHT22;9636;47.382;8.480;2023-11-22T09:58:30;14.40;99.90
19007;DHT22;9636;47.382;8.480;2023-11-22T10:00:57;14.40;99.90
19007;DHT22;9636;47.382;8.480;2023-11-22T10:03:25;14.40;99.90
19007;DHT22;9636;47.382;8.480;2023-11-22T10:05:54;14.40;99.90
19007;DHT22;9636;47.382;8.480;2023-11-22T10:08:22;14.40;99.90
19007;DHT22;9636;47.382;8.480;2023-11-22T10:10:49;14.40;99.90
19007;DHT22;9636;47.382;8.480;2023-11-22T10:13:20;14.40;99.90
19007;DHT22;9636;47.382;8.480;2023-11-22T10:15:47;14.40;99.90
19007;DHT22;9636;47.382;8.480;2023-11-22T10:18:14;14.40;99.90
19007;DHT22;9636;47.382;8.480;2023-11-22T10:20:43;14.40;99.90
19007;DHT22;9636;47.382;8.480;2023-11-22T10:23:14;14.40;99.90
19007;DHT22;9636;47.382;8.480;2023-11-22T10:25:45;14.40;99.90
19007;DHT22;9636;47.382;8.480;2023-11-22T10:28:13;14.40;99.90
19007;DHT22;9636;47.382;8.480;2023-11-22T10:30:40;14.40;99.90
19007;DHT22;9636;47.382;8.480;2023-11-22T10:33:09;14.40;99.90
19007;DHT22;9636;47.382;8.480;2023-11-22T10:35:39;14.40;99.90
19007;DHT22;9636;47.382;8.480;2023-11-22T10:38:08;14.40;99.90
19007;DHT22;9636;47.382;8.480;2023-11-22T10:40:37;14.40;99.90
19007;DHT22;9636;47.382;8.480;2023-11-22T10:43:05;14.40;99.90
19007;DHT22;9636;47.382;8.480;2023-11-22T10:45:33;14.40;99.90
19007;DHT22;9636;47.382;8.480;2023-11-22T10:48:03;14.40;99.90
19007;DHT22;9636;47.382;8.480;2023-11-22T10:50:30;14.40;99.90
19007;DHT22;9636;47.382;8.480;2023-11-22T10:52:58;14.50;99.90
19007;DHT22;9636;47.382;8.480;2023-11-22T10:55:27;14.60;99.90
19007;DHT22;9636;47.382;8.480;2023-11-22T10:58:01;14.60;99.90
19007;DHT22;9636;47.382;8.480;2023-11-22T11:00:29;14.60;99.90
19007;DHT22;9636;47.382;8.480;2023-11-22T11:02:59;14.60;99.90
19007;DHT22;9636;47.382;8.480;2023-11-22T11:05:30;14.60;99.90
19007;DHT22;9636;47.382;8.480;2023-11-22T11:08:00;14.60;99.90
19007;DHT22;9636;47.382;8.480;2023-11-22T11:10:28;14.60;99.90
19007;DHT22;9636;47.382;8.480;2023-11-22T11:12:57;14.50;99.90
19007;DHT22;9636;47.382;8.480;2023-11-22T11:15:24;14.50;99.90
19007;DHT22;9636;47.382;8.480;2023-11-22T11:17:53;14.50;99.90
19007;DHT22;9636;47.382;8.480;2023-11-22T11:20:22;14.50;99.90
19007;DHT22;9636;47.382;8.480;2023-11-22T11:22:49;14.50;99.90
19007;DHT22;9636;47.382;8.480;2023-11-22T11:25:17;14.50;99.90
19007;DHT22;9636;47.382;8.480;2023-11-22T11:27:51;14.50;99.90
19007;DHT22;9636;47.382;8.480;2023-11-22T11:30:46;14.50;99.90
19007;DHT22;9636;47.382;8.480;2023-11-22T11:33:14;14.50;99.90
19007;DHT22;9636;47.382;8.480;2023-11-22T11:35:44;14.50;99.90
19007;DHT22;9636;47.382;8.480;2023-11-22T11:38:15;14.50;99.90
19007;DHT22;9636;47.382;8.480;2023-11-22T11:40:45;14.50;99.90
19007;DHT22;9636;47.382;8.480;2023-11-22T11:43:12;14.50;99.90
19007;DHT22;9636;47.382;8.480;2023-11-22T11:45:40;14.40;99.90
19007;DHT22;9636;47.382;8.480;2023-11-22T11:48:13;14.50;99.90
19007;DHT22;9636;47.382;8.480;2023-11-22T11:50:40;14.50;99.90
19007;DHT22;9636;47.382;8.480;2023-11-22T11:53:07;14.50;99.90
19007;DHT22;9636;47.382;8.480;2023-11-22T11:55:34;14.50;99.90
19007;DHT22;9636;47.382;8.480;2023-11-22T11:58:04;14.50;99.90
19007;DHT22;9636;47.382;8.480;2023-11-22T12:00:33;14.50;99.90
19007;DHT22;9636;47.382;8.480;2023-11-22T12:03:00;14.50;99.90
19007;DHT22;9636;47.382;8.480;2023-11-22T12:05:28;14.50;99.90
19007;DHT22;9636;47.382;8.480;2023-11-22T12:07:55;14.50;99.90
19007;DHT22;9636;47.382;8.480;2023-11-22T12:10:22;14.50;99.90
19007;DHT22;9636;47.382;8.480;2023-11-22T12:12:49;14.50;99.90
19007;DHT22;9636;47.382;8.480;2023-11-22T12:15:18;14.50;99.90
19007;DHT22;9636;47.382;8.480;2023-11-22T12:17:45;14.50;99.90
19007;DHT22;9636;47.382;8.480;2023-11-22T12:20:13;14.50;99.90
19007;DHT22;9636;47.382;8.480;2023-11-22T12:22:42;14.50;99.90
19007;DHT22;9636;47.382;8.480;2023-11-22T12:25:10;14.50;99.90
19007;DHT22;9636;47.382;8.480;2023-11-22T12:27:41;14.60;99.90
19007;DHT22;9636;47.382;8.480;2023-11-22T12:30:09;14.60;99.90
19007;DHT22;9636;47.382;8.480;2023-11-22T12:32:39;14.60;99.90
19007;DHT22;9636;47.382;8.480;2023-11-22T12:35:07;14.60;99.90
19007;DHT22;9636;47.382;8.480;2023-11-22T12:37:37;14.70;99.90
19007;DHT22;9636;47.382;8.480;2023-11-22T12:40:11;14.70;99.90
19007;DHT22;9636;47.382;8.480;2023-11-22T12:42:48;14.70;99.90
19007;DHT22;9636;47.382;8.480;2023-11-22T12:45:20;14.70;99.90
19007;DHT22;9636;47.382;8.480;2023-11-22T12:47:49;14.70;99.90
19007;DHT22;9636;47.382;8.480;2023-11-22T12:50:33;14.70;99.90
19007;DHT22;9636;47.382;8.480;2023-11-22T12:53:08;14.60;99.90
19007;DHT22;9636;47.382;8.480;2023-11-22T12:55:38;14.70;99.90
19007;DHT22;9636;47.382;8.480;2023-11-22T12:58:06;14.70;99.90
19007;DHT22;9636;47.382;8.480;2023-11-22T13:00:33;14.70;99.90
19007;DHT22;9636;47.382;8.480;2023-11-22T13:03:01;14.60;99.90
19007;DHT22;9636;47.382;8.480;2023-11-22T13:05:28;14.70;99.90
19007;DHT22;9636;47.382;8.480;2023-11-22T13:07:55;14.60;99.90
19007;DHT22;9636;47.382;8.480;2023-11-22T13:10:21;14.60;99.90
19007;DHT22;9636;47.382;8.480;2023-11-22T13:12:53;14.60;99.90
19007;DHT22;9636;47.382;8.480;2023-11-22T13:15:20;14.50;99.90
19007;DHT22;9636;47.382;8.480;2023-11-22T13:17:49;14.50;99.90
19007;DHT22;9636;47.382;8.480;2023-11-22T13:20:16;14.50;99.90
19007;DHT22;9636;47.382;8.480;2023-11-22T13:22:45;14.50;99.90
19007;DHT22;9636;47.382;8.480;2023-11-22T13:25:12;14.50;99.90
19007;DHT22;9636;47.382;8.480;2023-11-22T13:27:39;14.40;99.90
19007;DHT22;9636;47.382;8.480;2023-11-22T13:30:08;14.40;99.90
19007;DHT22;9636;47.382;8.480;2023-11-22T13:32:36;14.40;99.90
19007;DHT22;9636;47.382;8.480;2023-11-22T13:35:05;14.40;99.90
19007;DHT22;9636;47.382;8.480;2023-11-22T13:37:38;14.40;99.90
19007;DHT22;9636;47.382;8.480;2023-11-22T13:40:08;14.40;99.90
19007;DHT22;9636;47.382;8.480;2023-11-22T13:42:40;14.40;99.90
19007;DHT22;9636;47.382;8.480;2023-11-22T13:45:09;14.40;99.90
19007;DHT22;9636;47.382;8.480;2023-11-22T13:47:36;14.30;99.90
19007;DHT22;9636;47.382;8.480;2023-11-22T13:50:04;14.30;99.90
19007;DHT22;9636;47.382;8.480;2023-11-22T13:52:32;14.30;99.90
19007;DHT22;9636;47.382;8.480;2023-11-22T13:54:58;14.30;99.90
19007;DHT22;9636;47.382;8.480;2023-11-22T13:57:26;14.20;99.90
19007;DHT22;9636;47.382;8.480;2023-11-22T13:59:53;14.20;99.90
19007;DHT22;9636;47.382;8.480;2023-11-22T14:02:21;14.20;99.90
19007;DHT22;9636;47.382;8.480;2023-11-22T14:04:48;14.20;99.90
19007;DHT22;9636;47.382;8.480;2023-11-22T14:07:15;14.20;99.90
19007;DHT22;9636;47.382;8.480;2023-11-22T14:09:42;14.10;99.90
19007;DHT22;9636;47.382;8.480;2023-11-22T14:12:12;14.10;99.90
19007;DHT22;9636;47.382;8.480;2023-11-22T14:14:39;14.10;99.90
19007;DHT22;9636;47.382;8.480;2023-11-22T14:17:05;14.10;99.90
19007;DHT22;9636;47.382;8.480;2023-11-22T14:19:33;14.00;99.90
19007;DHT22;9636;47.382;8.480;2023-11-22T14:22:00;14.00;99.90
19007;DHT22;9636;47.382;8.480;2023-11-22T14:24:29;14.00;99.90
19007;DHT22;9636;47.382;8.480;2023-11-22T14:26:56;14.00;99.90
19007;DHT22;9636;47.382;8.480;2023-11-22T14:29:26;13.90;99.90
19007;DHT22;9636;47.382;8.480;2023-11-22T14:31:52;14.00;99.90
19007;DHT22;9636;47.382;8.480;2023-11-22T14:34:21;13.90;99.90
19007;DHT22;9636;47.382;8.480;2023-11-22T14:36:49;13.90;99.90
19007;DHT22;9636;47.382;8.480;2023-11-22T14:39:16;13.90;99.90
19007;DHT22;9636;47.382;8.480;2023-11-22T14:41:43;13.90;99.90
19007;DHT22;9636;47.382;8.480;2023-11-22T14:44:11;13.90;99.90
19007;DHT22;9636;47.382;8.480;2023-11-22T14:46:37;13.90;99.90
19007;DHT22;9636;47.382;8.480;2023-11-22T14:49:04;13.80;99.90
19007;DHT22;9636;47.382;8.480;2023-11-22T14:51:32;13.80;99.90
19007;DHT22;9636;47.382;8.480;2023-11-22T14:54:01;13.80;99.90
19007;DHT22;9636;47.382;8.480;2023-11-22T14:56:27;13.70;99.90
19007;DHT22;9636;47.382;8.480;2023-11-22T14:58:54;13.80;99.90
19007;DHT22;9636;47.382;8.480;2023-11-22T15:01:21;13.70;99.90
19007;DHT22;9636;47.382;8.480;2023-11-22T15:03:50;13.70;99.90
19007;DHT22;9636;47.382;8.480;2023-11-22T15:06:19;13.70;99.90
19007;DHT22;9636;47.382;8.480;2023-11-22T15:08:46;13.70;99.90
19007;DHT22;9636;47.382;8.480;2023-11-22T15:11:14;13.60;99.90
19007;DHT22;9636;47.382;8.480;2023-11-22T15:13:41;13.60;99.90
19007;DHT22;9636;47.382;8.480;2023-11-22T15:16:08;13.60;99.90
19007;DHT22;9636;47.382;8.480;2023-11-22T15:18:38;13.60;99.90
19007;DHT22;9636;47.382;8.480;2023-11-22T15:21:05;13.60;99.90
19007;DHT22;9636;47.382;8.480;2023-11-22T15:23:32;13.60;99.90
19007;DHT22;9636;47.382;8.480;2023-11-22T15:25:58;13.50;99.90
19007;DHT22;9636;47.382;8.480;2023-11-22T15:28:27;13.50;99.90
19007;DHT22;9636;47.382;8.480;2023-11-22T15:30:53;13.50;99.90
19007;DHT22;9636;47.382;8.480;2023-11-22T15:33:24;13.50;99.90
19007;DHT22;9636;47.382;8.480;2023-11-22T15:35:50;13.50;99.90
19007;DHT22;9636;47.382;8.480;2023-11-22T15:38:19;13.40;99.90
19007;DHT22;9636;47.382;8.480;2023-11-22T15:40:47;13.40;99.90
19007;DHT22;9636;47.382;8.480;2023-11-22T15:43:14;13.40;99.90
19007;DHT22;9636;47.382;8.480;2023-11-22T15:45:43;13.40;99.90
19007;DHT22;9636;47.382;8.480;2023-11-22T15:48:09;13.40;99.90